createdAt,value
2023-03-31T00:01:45.204Z,100.00
2023-03-31T00:04:16.760Z,100.00
2023-03-31T00:06:48.300Z,100.00
2023-03-31T00:09:22.154Z,100.00
2023-03-31T00:11:55.119Z,100.00
2023-03-31T00:14:26.553Z,100.00
2023-03-31T00:16:58.497Z,100.00
2023-03-31T00:19:33.193Z,100.00
2023-03-31T00:22:05.305Z,100.00
2023-03-31T00:24:36.880Z,100.00
2023-03-31T00:27:09.059Z,100.00
2023-03-31T00:29:41.650Z,100.00
2023-03-31T00:32:14.577Z,100.00
2023-03-31T00:34:46.406Z,100.00
2023-03-31T00:37:17.849Z,100.00
2023-03-31T00:39:49.284Z,100.00
2023-03-31T00:42:20.986Z,100.00
2023-03-31T00:45:14.239Z,100.00
2023-03-31T00:47:50.724Z,100.00
2023-03-31T00:50:28.878Z,100.00
2023-03-31T00:53:10.925Z,100.00
2023-03-31T00:55:45.902Z,100.00
2023-03-31T00:58:20.330Z,100.00
2023-03-31T01:00:53.196Z,100.00
2023-03-31T01:03:25.100Z,100.00
2023-03-31T01:06:05.965Z,100.00
2023-03-31T01:08:40.194Z,100.00
2023-03-31T01:11:16.454Z,100.00
2023-03-31T01:13:50.877Z,100.00
2023-03-31T01:16:22.953Z,100.00
2023-03-31T01:18:57.426Z,100.00
2023-03-31T01:22:05.511Z,100.00
2023-03-31T01:24:39.984Z,100.00
2023-03-31T01:27:22.116Z,100.00
2023-03-31T01:30:15.683Z,100.00
2023-03-31T01:33:26.788Z,100.00
2023-03-31T01:36:28.402Z,100.00
2023-03-31T01:39:29.521Z,100.00
2023-03-31T01:42:30.278Z,100.00
2023-03-31T01:45:23.158Z,100.00
2023-03-31T01:48:18.122Z,100.00
2023-03-31T01:50:59.126Z,100.00
2023-03-31T01:53:44.725Z,100.00
2023-03-31T01:56:32.571Z,100.00
2023-03-31T01:59:31.293Z,100.00
2023-03-31T02:02:27.323Z,100.00
2023-03-31T02:05:08.904Z,100.00
2023-03-31T02:07:50.128Z,100.00
2023-03-31T02:10:24.137Z,100.00
2023-03-31T02:12:57.762Z,100.00
2023-03-31T02:15:38.185Z,100.00
2023-03-31T02:18:13.670Z,100.00
2023-03-31T02:20:48.984Z,100.00
2023-03-31T02:23:26.492Z,100.00
2023-03-31T02:26:15.978Z,100.00
2023-03-31T02:28:47.468Z,100.00
2023-03-31T02:31:29.160Z,100.00
2023-03-31T02:34:01.324Z,100.00
2023-03-31T02:36:35.315Z,100.00
2023-03-31T02:39:11.775Z,100.00
2023-03-31T02:41:43.669Z,100.00
2023-03-31T02:44:17.078Z,100.00
2023-03-31T02:46:50.329Z,100.00
2023-03-31T02:49:22.509Z,100.00
2023-03-31T02:52:06.458Z,100.00
2023-03-31T02:55:17.417Z,100.00
2023-03-31T02:57:56.936Z,100.00
2023-03-31T03:00:35.319Z,100.00
2023-03-31T03:03:44.402Z,100.00
2023-03-31T03:06:30.128Z,100.00
2023-03-31T03:09:19.318Z,100.00
2023-03-31T03:12:05.885Z,100.00
2023-03-31T03:14:48.501Z,100.00
2023-03-31T03:17:29.102Z,100.00
2023-03-31T03:20:02.513Z,100.00
2023-03-31T03:22:34.360Z,100.00
2023-03-31T03:25:10.584Z,100.00
2023-03-31T03:27:41.898Z,100.00
2023-03-31T03:30:13.969Z,100.00
2023-03-31T03:32:46.182Z,100.00
2023-03-31T03:35:17.871Z,100.00
2023-03-31T03:37:49.309Z,100.00
2023-03-31T03:40:20.932Z,100.00
2023-03-31T03:42:52.406Z,100.00
2023-03-31T03:45:23.825Z,100.00
2023-03-31T03:47:55.326Z,100.00
2023-03-31T03:50:27.137Z,100.00
2023-03-31T03:52:58.616Z,100.00
2023-03-31T03:55:30.078Z,100.00
2023-03-31T03:58:01.781Z,100.00
2023-03-31T04:00:34.005Z,100.00
2023-03-31T04:03:05.361Z,100.00
2023-03-31T04:05:36.867Z,100.00
2023-03-31T04:08:08.776Z,100.00
2023-03-31T04:10:49.121Z,100.00
2023-03-31T04:13:21.120Z,100.00
2023-03-31T04:15:52.607Z,100.00
2023-03-31T04:18:23.989Z,100.00
2023-03-31T04:21:04.057Z,100.00
2023-03-31T04:23:46.649Z,100.00
2023-03-31T04:26:18.689Z,100.00
2023-03-31T04:28:50.930Z,100.00
2023-03-31T04:31:25.400Z,100.00
2023-03-31T04:34:02.155Z,100.00
2023-03-31T04:36:33.975Z,100.00
2023-03-31T04:39:05.456Z,100.00
2023-03-31T04:41:36.932Z,100.00
2023-03-31T04:44:08.398Z,100.00
2023-03-31T04:46:39.894Z,100.00
2023-03-31T04:49:11.288Z,100.00
2023-03-31T04:51:43.221Z,100.00
2023-03-31T04:54:14.642Z,100.00
2023-03-31T04:56:46.393Z,100.00
2023-03-31T04:59:17.739Z,100.00
2023-03-31T05:01:49.168Z,100.00
2023-03-31T05:04:21.106Z,100.00
2023-03-31T05:06:52.508Z,100.00
2023-03-31T05:09:23.832Z,100.00
2023-03-31T05:11:56.418Z,100.00
2023-03-31T05:14:27.791Z,100.00
2023-03-31T05:16:59.534Z,100.00
2023-03-31T05:19:31.521Z,100.00
2023-03-31T05:22:03.068Z,100.00
2023-03-31T05:24:34.713Z,100.00
2023-03-31T05:27:06.603Z,100.00
2023-03-31T05:29:38.926Z,100.00
2023-03-31T05:32:10.422Z,100.00
2023-03-31T05:34:43.364Z,100.00
2023-03-31T05:37:14.732Z,100.00
2023-03-31T05:39:46.256Z,100.00
2023-03-31T05:42:17.873Z,100.00
2023-03-31T05:44:49.463Z,100.00
2023-03-31T05:47:21.176Z,100.00
2023-03-31T05:49:53.132Z,100.00
2023-03-31T05:52:24.616Z,100.00
2023-03-31T05:54:56.064Z,100.00
2023-03-31T05:57:27.592Z,100.00
2023-03-31T05:59:59.121Z,100.00
2023-03-31T06:02:30.587Z,100.00
2023-03-31T06:05:02.027Z,100.00
2023-03-31T06:07:33.389Z,100.00
2023-03-31T06:10:08.212Z,100.00
2023-03-31T06:12:39.701Z,100.00
2023-03-31T06:15:11.243Z,100.00
2023-03-31T06:17:43.012Z,100.00
2023-03-31T06:20:27.133Z,100.00
2023-03-31T06:22:59.478Z,100.00
2023-03-31T06:25:40.189Z,100.00
2023-03-31T06:28:21.344Z,100.00
2023-03-31T06:31:00.545Z,100.00
2023-03-31T06:33:34.309Z,100.00
2023-03-31T06:36:06.940Z,100.00
2023-03-31T06:38:39.942Z,100.00
2023-03-31T06:41:14.040Z,100.00
2023-03-31T06:43:46.450Z,100.00
2023-03-31T06:46:18.651Z,100.00
2023-03-31T06:48:50.195Z,100.00
2023-03-31T06:51:21.697Z,100.00
2023-03-31T06:53:53.142Z,100.00
2023-03-31T06:56:24.591Z,100.00
2023-03-31T06:58:55.997Z,100.00
2023-03-31T07:01:27.380Z,100.00
2023-03-31T07:03:58.879Z,100.00
2023-03-31T07:06:31.349Z,100.00
2023-03-31T07:09:04.436Z,100.00
2023-03-31T07:11:35.805Z,100.00
2023-03-31T07:14:07.462Z,100.00
2023-03-31T07:16:39.272Z,100.00
2023-03-31T07:19:11.049Z,100.00
2023-03-31T07:21:42.491Z,100.00
2023-03-31T07:24:14.060Z,100.00
2023-03-31T07:26:45.706Z,100.00
2023-03-31T07:29:17.192Z,100.00
2023-03-31T07:31:48.781Z,100.00
2023-03-31T07:34:20.431Z,100.00
2023-03-31T07:36:55.216Z,100.00
2023-03-31T07:39:26.640Z,100.00
2023-03-31T07:41:58.336Z,100.00
2023-03-31T07:44:29.853Z,100.00
2023-03-31T07:47:06.061Z,100.00
2023-03-31T07:49:37.478Z,100.00
2023-03-31T07:52:08.938Z,100.00
2023-03-31T07:54:40.532Z,100.00
2023-03-31T07:57:12.600Z,100.00
2023-03-31T07:59:43.995Z,100.00
2023-03-31T08:02:17.179Z,100.00
2023-03-31T08:04:48.648Z,100.00
2023-03-31T08:07:20.171Z,100.00
2023-03-31T08:09:52.161Z,100.00
2023-03-31T08:12:23.543Z,100.00
2023-03-31T08:14:55.204Z,100.00
2023-03-31T08:17:26.935Z,100.00
2023-03-31T08:20:02.768Z,100.00
2023-03-31T08:22:37.824Z,100.00
2023-03-31T08:25:10.973Z,100.00
2023-03-31T08:27:42.459Z,100.00
2023-03-31T08:30:14.110Z,100.00
2023-03-31T08:32:47.186Z,100.00
2023-03-31T08:35:18.967Z,100.00
2023-03-31T08:37:50.437Z,100.00
2023-03-31T08:40:28.036Z,100.00
2023-03-31T08:43:06.134Z,100.00
2023-03-31T08:45:42.494Z,100.00
2023-03-31T08:48:27.242Z,100.00
2023-03-31T08:51:06.085Z,100.00
2023-03-31T08:53:43.740Z,100.00
2023-03-31T08:56:22.504Z,100.00
2023-03-31T08:58:54.258Z,100.00
2023-03-31T09:01:54.803Z,100.00
2023-03-31T09:04:33.376Z,100.00
2023-03-31T09:07:26.289Z,100.00
2023-03-31T09:10:12.980Z,100.00
2023-03-31T09:13:03.327Z,100.00
2023-03-31T09:15:53.070Z,100.00
2023-03-31T09:18:32.735Z,100.00
2023-03-31T09:21:20.131Z,100.00
2023-03-31T09:24:00.189Z,100.00
2023-03-31T09:26:37.591Z,100.00
2023-03-31T09:29:27.103Z,100.00
2023-03-31T09:32:21.336Z,100.00
2023-03-31T09:35:01.091Z,100.00
2023-03-31T09:37:33.288Z,100.00
2023-03-31T09:40:07.697Z,100.00
2023-03-31T09:42:39.190Z,100.00
2023-03-31T09:45:19.868Z,100.00
2023-03-31T09:47:57.834Z,100.00
2023-03-31T09:50:31.374Z,100.00
2023-03-31T09:53:05.783Z,100.00
2023-03-31T09:55:50.588Z,100.00
2023-03-31T09:58:24.701Z,100.00
2023-03-31T10:01:02.413Z,100.00
2023-03-31T10:03:37.170Z,100.00
2023-03-31T10:06:11.378Z,100.00
2023-03-31T10:08:54.345Z,100.00
2023-03-31T10:11:29.347Z,100.00
2023-03-31T10:14:13.542Z,100.00
2023-03-31T10:16:55.535Z,100.00
2023-03-31T10:19:30.081Z,100.00
2023-03-31T10:22:14.312Z,100.00
2023-03-31T10:24:48.302Z,100.00
2023-03-31T10:27:22.414Z,100.00
2023-03-31T10:30:03.046Z,100.00
2023-03-31T10:32:43.232Z,100.00
2023-03-31T10:35:23.951Z,100.00
2023-03-31T10:37:59.011Z,100.00
2023-03-31T10:40:33.217Z,100.00
2023-03-31T10:43:17.232Z,100.00
2023-03-31T10:46:02.030Z,100.00
2023-03-31T10:48:39.736Z,100.00
2023-03-31T10:51:16.871Z,100.00
2023-03-31T10:53:50.410Z,100.00
2023-03-31T10:56:42.114Z,100.00
2023-03-31T10:59:28.175Z,100.00
2023-03-31T11:02:21.616Z,100.00
2023-03-31T11:05:13.141Z,100.00
2023-03-31T11:07:59.034Z,100.00
2023-03-31T11:10:42.284Z,100.00
2023-03-31T11:13:21.506Z,100.00
2023-03-31T11:16:18.839Z,100.00
2023-03-31T11:19:12.238Z,100.00
2023-03-31T11:21:57.656Z,100.00
2023-03-31T11:24:49.372Z,100.00
2023-03-31T11:27:41.376Z,100.00
2023-03-31T11:30:28.837Z,100.00
2023-03-31T11:33:18.728Z,100.00
2023-03-31T11:36:06.655Z,100.00
2023-03-31T11:39:03.867Z,100.00
2023-03-31T11:41:41.777Z,100.00
2023-03-31T11:44:16.769Z,100.00
2023-03-31T11:46:54.444Z,100.00
2023-03-31T11:49:29.283Z,100.00
2023-03-31T11:52:03.928Z,100.00
2023-03-31T11:54:53.602Z,100.00
2023-03-31T11:57:46.670Z,100.00
2023-03-31T12:00:20.861Z,100.00
2023-03-31T12:03:13.185Z,100.00
2023-03-31T12:05:53.276Z,100.00
2023-03-31T12:08:50.609Z,100.00
2023-03-31T12:11:40.142Z,100.00
2023-03-31T12:14:18.587Z,100.00
2023-03-31T12:16:58.003Z,100.00
2023-03-31T12:19:50.589Z,100.00
2023-03-31T12:22:27.576Z,100.00
2023-03-31T12:24:59.375Z,100.00
2023-03-31T12:27:42.098Z,100.00
2023-03-31T12:30:17.270Z,100.00
2023-03-31T12:33:27.074Z,100.00
2023-03-31T12:36:14.855Z,100.00
2023-03-31T12:39:01.441Z,100.00
2023-03-31T12:42:01.426Z,100.00
2023-03-31T12:44:57.513Z,100.00
2023-03-31T12:48:02.701Z,100.00
2023-03-31T12:51:02.527Z,100.00
2023-03-31T12:53:45.063Z,100.00
2023-03-31T12:56:18.072Z,100.00
2023-03-31T12:58:50.459Z,100.00
2023-03-31T13:01:23.618Z,100.00
2023-03-31T13:04:21.408Z,100.00
2023-03-31T13:06:59.446Z,100.00
2023-03-31T13:09:33.578Z,100.00
2023-03-31T13:12:13.260Z,100.00
2023-03-31T13:14:47.858Z,100.00
2023-03-31T13:17:27.333Z,100.00
2023-03-31T13:20:25.827Z,100.00
2023-03-31T13:23:03.307Z,100.00
2023-03-31T13:25:39.648Z,100.00
2023-03-31T13:28:18.412Z,100.00
2023-03-31T13:31:04.994Z,100.00
2023-03-31T13:33:39.344Z,100.00
2023-03-31T13:36:32.114Z,100.00
2023-03-31T13:39:12.642Z,100.00
2023-03-31T13:42:08.168Z,100.00
2023-03-31T13:45:21.129Z,100.00
2023-03-31T13:48:04.021Z,100.00
2023-03-31T13:50:52.104Z,100.00
2023-03-31T13:53:59.058Z,100.00
2023-03-31T13:57:05.652Z,100.00
2023-03-31T14:00:12.439Z,100.00
2023-03-31T14:03:12.039Z,100.00
2023-03-31T14:05:50.768Z,100.00
2023-03-31T14:08:40.384Z,100.00
2023-03-31T14:11:28.732Z,100.00
2023-03-31T14:14:15.520Z,100.00
2023-03-31T14:16:59.434Z,100.00
2023-03-31T14:19:49.860Z,100.00
2023-03-31T14:22:46.736Z,100.00
2023-03-31T14:25:50.982Z,100.00
2023-03-31T14:29:02.896Z,100.00
2023-03-31T14:31:56.280Z,100.00
2023-03-31T14:35:06.404Z,100.00
2023-03-31T14:37:37.813Z,100.00
2023-03-31T14:40:15.923Z,100.00
2023-03-31T14:42:50.218Z,100.00
2023-03-31T14:45:26.492Z,100.00
2023-03-31T14:48:02.671Z,100.00
2023-03-31T14:50:36.112Z,100.00
2023-03-31T14:53:14.257Z,100.00
2023-03-31T14:55:58.030Z,100.00
2023-03-31T14:58:35.028Z,100.00
2023-03-31T15:01:09.934Z,100.00
2023-03-31T15:03:43.171Z,100.00
2023-03-31T15:06:15.918Z,100.00
2023-03-31T15:08:47.502Z,100.00
2023-03-31T15:11:21.720Z,100.00
2023-03-31T15:14:04.429Z,100.00
2023-03-31T15:16:44.625Z,100.00
2023-03-31T15:19:21.450Z,100.00
2023-03-31T15:22:01.904Z,100.00
2023-03-31T15:24:33.416Z,100.00
2023-03-31T15:27:23.471Z,100.00
2023-03-31T15:30:05.842Z,100.00
2023-03-31T15:32:39.665Z,100.00
2023-03-31T15:35:25.718Z,100.00
2023-03-31T15:37:59.684Z,100.00
2023-03-31T15:40:41.534Z,100.00
2023-03-31T15:43:25.414Z,100.00
2023-03-31T15:45:59.617Z,100.00
2023-03-31T15:48:36.841Z,100.00
2023-03-31T15:51:14.404Z,100.00
2023-03-31T15:53:48.612Z,100.00
2023-03-31T15:56:38.489Z,100.00
2023-03-31T16:02:26.384Z,100.00
2023-03-31T16:04:59.797Z,100.00
2023-03-31T16:07:34.686Z,100.00
2023-03-31T16:10:19.986Z,100.00
2023-03-31T16:12:56.926Z,100.00
2023-03-31T16:15:48.168Z,100.00
2023-03-31T16:18:39.882Z,100.00
2023-03-31T16:21:13.720Z,100.00
2023-03-31T16:23:52.451Z,100.00
2023-03-31T16:26:25.804Z,100.00
2023-03-31T16:28:57.851Z,100.00
2023-03-31T16:31:35.209Z,100.00
2023-03-31T16:34:09.302Z,100.00
2023-03-31T16:36:40.809Z,100.00
2023-03-31T16:39:12.383Z,100.00
2023-03-31T16:41:43.771Z,100.00
2023-03-31T16:44:15.161Z,100.00
2023-03-31T16:46:47.033Z,100.00
2023-03-31T16:49:18.567Z,100.00
2023-03-31T16:51:50.359Z,100.00
2023-03-31T16:54:21.863Z,100.00
2023-03-31T16:56:53.297Z,100.00
2023-03-31T16:59:24.932Z,100.00
2023-03-31T17:01:56.258Z,100.00
2023-03-31T17:04:28.161Z,100.00
2023-03-31T17:06:59.760Z,100.00
2023-03-31T17:09:31.360Z,100.00
2023-03-31T17:12:03.340Z,100.00
2023-03-31T17:14:34.663Z,100.00
2023-03-31T17:17:06.079Z,100.00
2023-03-31T17:19:37.418Z,100.00
2023-03-31T17:22:08.966Z,100.00
2023-03-31T17:24:40.716Z,100.00
2023-03-31T17:27:13.468Z,100.00
2023-03-31T17:29:44.992Z,100.00
2023-03-31T17:32:17.818Z,99.48
2023-03-31T17:34:49.846Z,99.95
2023-03-31T17:37:21.533Z,99.62
2023-03-31T17:39:53.240Z,99.19
2023-03-31T17:42:24.839Z,99.13
2023-03-31T17:44:56.241Z,99.02
2023-03-31T17:47:27.889Z,98.64
2023-03-31T17:49:59.896Z,98.46
2023-03-31T17:52:31.310Z,98.58
2023-03-31T17:55:04.219Z,98.89
2023-03-31T17:57:37.156Z,98.64
2023-03-31T18:00:09.894Z,98.70
2023-03-31T18:02:42.243Z,98.55
2023-03-31T18:05:16.376Z,98.74
2023-03-31T18:07:49.523Z,98.44
2023-03-31T18:10:22.566Z,98.74
2023-03-31T18:12:55.001Z,98.80
2023-03-31T18:15:26.369Z,99.18
2023-03-31T18:17:57.797Z,99.13
2023-03-31T18:20:29.264Z,98.95
2023-03-31T18:23:00.926Z,99.16
2023-03-31T18:25:32.495Z,99.08
2023-03-31T18:28:04.930Z,99.49
2023-03-31T18:30:37.955Z,99.62
2023-03-31T18:33:11.069Z,99.09
2023-03-31T18:35:42.776Z,99.50
2023-03-31T18:38:14.412Z,99.48
2023-03-31T18:40:50.637Z,99.79
2023-03-31T18:43:24.432Z,99.82
2023-03-31T18:45:58.453Z,100.00
2023-03-31T18:48:30.077Z,100.00
2023-03-31T18:51:01.925Z,100.00
2023-03-31T18:53:33.534Z,100.00
2023-03-31T18:56:05.515Z,100.00
2023-03-31T18:58:37.757Z,100.00
2023-03-31T19:01:09.501Z,100.00
2023-03-31T19:03:42.375Z,100.00
2023-03-31T19:06:13.848Z,100.00
2023-03-31T19:08:45.263Z,100.00
2023-03-31T19:11:17.140Z,100.00
2023-03-31T19:13:49.525Z,100.00
2023-03-31T19:16:21.601Z,100.00
2023-03-31T19:18:53.968Z,100.00
2023-03-31T19:21:25.641Z,100.00
2023-03-31T19:23:57.012Z,100.00
2023-03-31T19:26:29.766Z,100.00
2023-03-31T19:29:02.975Z,100.00
2023-03-31T19:31:38.227Z,100.00
2023-03-31T19:34:11.683Z,100.00
2023-03-31T19:36:43.510Z,100.00
2023-03-31T19:39:15.350Z,100.00
2023-03-31T19:41:46.783Z,100.00
2023-03-31T19:44:18.429Z,100.00
2023-03-31T19:46:49.967Z,100.00
2023-03-31T19:49:22.874Z,100.00
2023-03-31T19:51:55.853Z,100.00
2023-03-31T19:54:27.424Z,100.00
2023-03-31T19:56:58.859Z,100.00
2023-03-31T19:59:30.524Z,100.00
2023-03-31T20:02:05.142Z,100.00
2023-03-31T20:04:36.895Z,100.00
2023-03-31T20:07:08.991Z,100.00
2023-03-31T20:09:40.777Z,100.00
2023-03-31T20:12:12.315Z,100.00
2023-03-31T20:14:44.199Z,100.00
2023-03-31T20:17:16.864Z,100.00
2023-03-31T20:19:48.304Z,100.00
2023-03-31T20:22:20.020Z,100.00
2023-03-31T20:24:51.836Z,100.00
2023-03-31T20:27:26.383Z,100.00
2023-03-31T20:29:57.796Z,100.00
2023-03-31T20:32:29.721Z,100.00
2023-03-31T20:35:01.096Z,100.00
2023-03-31T20:37:33.933Z,100.00
2023-03-31T20:40:06.099Z,100.00
2023-03-31T20:42:37.774Z,100.00
2023-03-31T20:45:09.522Z,100.00
2023-03-31T20:47:40.953Z,100.00
2023-03-31T20:50:12.767Z,100.00
2023-03-31T20:52:47.485Z,100.00
2023-03-31T20:55:19.123Z,100.00
2023-03-31T20:57:50.486Z,100.00
2023-03-31T21:00:22.248Z,100.00
2023-03-31T21:02:53.673Z,100.00
2023-03-31T21:05:25.340Z,100.00
2023-03-31T21:07:56.883Z,100.00
2023-03-31T21:10:28.298Z,100.00
2023-03-31T21:13:12.316Z,100.00
2023-03-31T21:15:48.839Z,100.00
2023-03-31T21:18:25.152Z,100.00
2023-03-31T21:21:06.518Z,100.00
2023-03-31T21:23:38.686Z,100.00
2023-03-31T21:26:13.853Z,100.00
2023-03-31T21:28:46.095Z,100.00
2023-03-31T21:31:18.843Z,100.00
2023-03-31T21:33:52.229Z,100.00
2023-03-31T21:36:25.421Z,100.00
2023-03-31T21:38:57.856Z,100.00
2023-03-31T21:41:31.292Z,100.00
2023-03-31T21:44:03.552Z,100.00
2023-03-31T21:46:34.962Z,100.00
2023-03-31T21:49:06.450Z,100.00
2023-03-31T21:51:38.432Z,100.00
2023-03-31T21:54:09.983Z,100.00
2023-03-31T21:56:41.317Z,100.00
2023-03-31T21:59:12.659Z,100.00
2023-03-31T22:01:44.212Z,100.00
2023-03-31T22:04:16.214Z,100.00
2023-03-31T22:06:47.572Z,100.00
2023-03-31T22:09:19.115Z,100.00
2023-03-31T22:11:50.666Z,100.00
2023-03-31T22:14:22.069Z,100.00
2023-03-31T22:16:53.441Z,100.00
2023-03-31T22:19:24.949Z,100.00
2023-03-31T22:21:56.770Z,100.00
2023-03-31T22:24:28.076Z,100.00
2023-03-31T22:26:59.424Z,100.00
2023-03-31T22:29:31.964Z,100.00
2023-03-31T22:32:05.395Z,100.00
2023-03-31T22:34:36.775Z,100.00
2023-03-31T22:37:08.202Z,100.00
2023-03-31T22:39:39.880Z,100.00
2023-03-31T22:42:11.206Z,100.00
2023-03-31T22:44:42.549Z,100.00
2023-03-31T22:47:13.944Z,100.00
2023-03-31T22:49:45.766Z,100.00
2023-03-31T22:52:17.245Z,100.00
2023-03-31T22:54:48.603Z,100.00
2023-03-31T22:57:20.232Z,100.00
2023-03-31T22:59:51.634Z,100.00
2023-03-31T23:02:23.060Z,100.00
2023-03-31T23:04:54.386Z,100.00
2023-03-31T23:07:25.944Z,100.00
2023-03-31T23:09:57.336Z,100.00
2023-03-31T23:12:29.085Z,100.00
2023-03-31T23:15:00.544Z,100.00
2023-03-31T23:17:32.051Z,100.00
2023-03-31T23:20:04.009Z,100.00
2023-03-31T23:22:35.432Z,100.00
2023-03-31T23:25:07.267Z,100.00
2023-03-31T23:27:38.610Z,100.00
2023-03-31T23:30:10.560Z,100.00
2023-03-31T23:32:42.034Z,100.00
2023-03-31T23:35:13.419Z,100.00
2023-03-31T23:37:45.603Z,100.00
2023-03-31T23:40:17.148Z,100.00
2023-03-31T23:42:48.543Z,100.00
2023-03-31T23:45:19.975Z,100.00
2023-03-31T23:47:51.822Z,100.00
2023-03-31T23:50:23.496Z,100.00
2023-03-31T23:52:55.551Z,100.00
2023-03-31T23:55:28.381Z,100.00
2023-03-31T23:57:59.988Z,100.00
